Time;durP1;ratioP1;P1;durP2;ratioP2;P2;SDS_P1;SDS_P2;PMS_P1;PMS_P2;Temp;Humidity;BMP_temperature;BMP_pressure;BME280_temperature;BME280_humidity;BME280_pressure;Samples;Min_cycle;Max_cycle;Signal;HPM_P1;HPM_P2
2021/05/04 00:01:42;;;;;;;2.80;2.00;;;6.70;95.70;;;;;;4238870;27;20092;-57
2021/05/04 00:03:43;;;;;;;2.43;2.20;;;6.70;96.00;;;;;;4241792;27;20015;-57
2021/05/04 00:05:44;;;;;;;3.03;2.27;;;6.60;96.40;;;;;;4241212;27;20035;-64
2021/05/04 00:07:46;;;;;;;3.53;2.20;;;6.60;96.70;;;;;;4241696;27;20019;-56
2021/05/04 00:09:47;;;;;;;5.60;1.90;;;6.60;97.20;;;;;;4240898;27;20543;-59
2021/05/04 00:11:48;;;;;;;4.07;2.40;;;6.60;97.00;;;;;;4241239;27;20039;-58
2021/05/04 00:13:49;;;;;;;2.53;2.10;;;6.50;97.00;;;;;;4239042;27;20985;-58
2021/05/04 00:15:51;;;;;;;6.77;2.60;;;6.60;97.10;;;;;;4241773;27;20043;-60
2021/05/04 00:17:52;;;;;;;2.30;2.10;;;6.50;97.70;;;;;;4240964;27;20043;-58
2021/05/04 00:19:53;;;;;;;2.43;1.87;;;6.50;97.70;;;;;;4240904;27;20043;-59
2021/05/04 00:21:54;;;;;;;3.53;2.50;;;6.40;98.20;;;;;;4240612;27;20031;-57
2021/05/04 00:23:55;;;;;;;5.83;2.77;;;6.40;98.30;;;;;;4240311;27;20027;-56
2021/05/04 00:25:56;;;;;;;8.27;2.40;;;6.30;98.60;;;;;;4240877;27;20039;-60
2021/05/04 00:27:57;;;;;;;7.33;2.97;;;6.30;98.70;;;;;;4240519;27;20036;-57
2021/05/04 00:29:58;;;;;;;4.20;2.07;;;6.30;98.60;;;;;;4241602;27;20084;-59
2021/05/04 00:31:59;;;;;;;4.57;2.43;;;6.30;98.70;;;;;;4240090;27;20459;-59
2021/05/04 00:34:01;;;;;;;16.17;3.07;;;6.30;98.70;;;;;;4241519;27;20031;-55
2021/05/04 00:36:02;;;;;;;7.57;3.40;;;6.30;99.00;;;;;;4240909;27;20491;-58
2021/05/04 00:38:03;;;;;;;9.37;2.40;;;6.30;99.20;;;;;;4240645;27;20068;-53
2021/05/04 00:40:06;;;;;;;6.53;2.60;;;6.30;99.40;;;;;;4240048;27;20035;-60
2021/05/04 00:42:07;;;;;;;7.20;2.27;;;6.20;99.60;;;;;;4239716;27;20035;-63
2021/05/04 00:44:08;;;;;;;3.50;2.27;;;6.20;99.80;;;;;;4240403;27;20031;-64
2021/05/04 00:46:09;;;;;;;4.77;2.27;;;6.20;99.90;;;;;;4240825;27;20035;-67
2021/05/04 00:48:10;;;;;;;3.50;2.50;;;6.20;99.90;;;;;;4240642;27;20076;-64
2021/05/04 00:50:12;;;;;;;4.83;2.37;;;6.20;99.90;;;;;;4239984;27;20440;-61
2021/05/04 00:52:14;;;;;;;3.53;2.20;;;6.20;99.90;;;;;;4241101;27;20068;-57
2021/05/04 00:54:17;;;;;;;3.90;2.00;;;6.10;99.90;;;;;;4236460;27;20100;-57
2021/05/04 00:56:19;;;;;;;4.60;2.13;;;6.10;99.90;;;;;;4240695;27;20043;-56
2021/05/04 00:58:21;;;;;;;2.77;2.00;;;6.10;99.90;;;;;;4240446;27;20100;-56
2021/05/04 01:00:22;;;;;;;2.53;1.70;;;6.10;99.90;;;;;;4240815;27;20039;-56
2021/05/04 01:02:24;;;;;;;3.50;2.10;;;6.00;99.90;;;;;;4239676;27;20047;-58
2021/05/04 01:04:25;;;;;;;5.53;2.20;;;6.10;99.90;;;;;;4240718;27;20155;-66
2021/05/04 01:06:27;;;;;;;5.60;2.40;;;6.10;99.90;;;;;;4239695;27;20785;-62
2021/05/04 01:08:28;;;;;;;4.07;2.30;;;6.00;99.90;;;;;;4240630;27;20027;-55
2021/05/04 01:10:29;;;;;;;7.20;2.23;;;6.00;99.90;;;;;;4239268;27;20036;-54
2021/05/04 01:12:30;;;;;;;3.67;2.37;;;6.00;99.90;;;;;;4240487;27;20028;-55
2021/05/04 01:14:31;;;;;;;6.73;2.40;;;6.00;99.90;;;;;;4239672;27;20966;-58
2021/05/04 01:16:33;;;;;;;5.73;2.10;;;6.00;99.90;;;;;;4239978;27;20355;-55
2021/05/04 01:18:34;;;;;;;4.53;2.60;;;6.00;99.90;;;;;;4239189;27;20042;-55
2021/05/04 01:20:38;;;;;;;3.90;2.43;;;5.90;99.90;;;;;;4239318;27;20287;-59
2021/05/04 01:22:39;;;;;;;3.73;2.00;;;6.00;99.90;;;;;;4240844;27;20519;-57
2021/05/04 01:24:41;;;;;;;4.50;1.77;;;5.90;99.90;;;;;;4240003;27;20023;-60
2021/05/04 01:26:43;;;;;;;4.63;2.37;;;5.90;99.90;;;;;;4240207;27;20287;-58
2021/05/04 01:28:45;;;;;;;2.37;2.10;;;5.90;99.90;;;;;;4239659;27;20401;-58
2021/05/04 01:30:46;;;;;;;5.43;2.20;;;5.90;99.90;;;;;;4239877;27;20312;-55
2021/05/04 01:32:47;;;;;;;3.07;1.90;;;5.90;99.90;;;;;;4238520;27;21113;-55
2021/05/04 01:34:48;;;;;;;3.27;1.80;;;5.90;99.80;;;;;;4240368;27;21192;-56
2021/05/04 01:36:49;;;;;;;2.77;1.83;;;5.90;99.70;;;;;;4238986;27;20340;-57
2021/05/04 01:38:50;;;;;;;2.80;1.60;;;5.90;99.80;;;;;;4240065;27;20088;-58
2021/05/04 01:40:52;;;;;;;6.03;1.63;;;5.90;99.50;;;;;;4239449;27;20267;-60
2021/05/04 01:42:54;;;;;;;4.20;1.60;;;5.90;99.30;;;;;;4240514;27;20278;-61
2021/05/04 01:44:55;;;;;;;2.93;1.90;;;5.90;99.20;;;;;;4239354;27;20332;-60
2021/05/04 01:46:56;;;;;;;4.03;2.23;;;5.90;99.00;;;;;;4241057;27;20308;-57
2021/05/04 01:49:08;;;;;;;7.80;1.87;;;5.90;99.00;;;;;;4240214;27;20758;-51
2021/05/04 01:51:09;;;;;;;2.23;1.60;;;5.90;99.10;;;;;;4240072;27;20673;-59
2021/05/04 01:53:10;;;;;;;3.30;2.00;;;5.90;99.20;;;;;;4240472;27;20340;-59
2021/05/04 01:55:11;;;;;;;3.30;1.77;;;5.90;99.40;;;;;;4238735;27;20352;-59
2021/05/04 01:57:13;;;;;;;3.97;2.80;;;5.90;99.30;;;;;;4240020;27;20267;-56
2021/05/04 01:59:14;;;;;;;4.40;2.23;;;5.80;99.20;;;;;;4239703;27;20274;-55
2021/05/04 02:01:16;;;;;;;2.40;1.70;;;5.80;99.40;;;;;;4239393;27;20267;-62
2021/05/04 02:03:17;;;;;;;3.97;1.97;;;5.80;99.50;;;;;;4238301;27;20799;-58
2021/05/04 02:05:18;;;;;;;3.17;1.73;;;5.80;99.50;;;;;;4239772;27;20891;-60
2021/05/04 02:07:20;;;;;;;2.20;1.93;;;5.80;99.50;;;;;;4239115;27;20654;-54
2021/05/04 02:09:21;;;;;;;4.40;1.97;;;5.70;99.90;;;;;;4239824;27;20275;-59
2021/05/04 02:11:22;;;;;;;3.13;2.13;;;5.60;99.90;;;;;;4238510;27;20291;-63
2021/05/04 02:13:24;;;;;;;3.90;1.97;;;5.60;99.90;;;;;;4238484;27;20272;-67
2021/05/04 02:15:25;;;;;;;6.43;2.27;;;5.60;99.90;;;;;;4239202;28;20291;-65
2021/05/04 02:17:26;;;;;;;4.30;2.47;;;5.50;99.90;;;;;;4239318;28;20287;-61
2021/05/04 02:19:27;;;;;;;4.90;1.90;;;5.40;99.90;;;;;;4239048;27;20673;-60
2021/05/04 02:21:29;;;;;;;3.70;1.90;;;5.40;99.90;;;;;;4239290;28;20280;-69
2021/05/04 02:23:31;;;;;;;5.17;1.90;;;5.30;99.90;;;;;;4239159;28;20816;-57
2021/05/04 02:25:32;;;;;;;2.40;2.00;;;5.30;99.90;;;;;;4240439;27;20291;-65
2021/05/04 02:27:34;;;;;;;3.90;2.10;;;5.30;99.90;;;;;;4242811;27;21022;-57
2021/05/04 02:29:35;;;;;;;2.73;2.10;;;5.20;99.90;;;;;;4242485;27;20255;-58
2021/05/04 02:31:36;;;;;;;4.33;2.33;;;5.30;99.90;;;;;;4243002;27;20335;-55
2021/05/04 02:33:39;;;;;;;3.10;2.40;;;5.20;99.90;;;;;;4241689;27;20344;-57
2021/05/04 02:35:40;;;;;;;5.77;2.47;;;5.20;99.90;;;;;;4241273;27;21113;-56
2021/05/04 02:37:41;;;;;;;6.20;2.27;;;5.30;99.90;;;;;;4242972;27;20287;-54
2021/05/04 02:39:42;;;;;;;8.77;2.07;;;5.30;99.90;;;;;;4242714;27;20332;-55
2021/05/04 02:41:43;;;;;;;3.57;2.10;;;5.30;99.90;;;;;;4241567;27;20283;-58
2021/05/04 02:43:44;;;;;;;3.10;2.60;;;5.30;99.90;;;;;;4243466;27;20339;-55
2021/05/04 02:45:45;;;;;;;5.83;2.43;;;5.30;99.90;;;;;;4242326;27;20271;-57
2021/05/04 02:47:47;;;;;;;4.97;2.50;;;5.30;99.90;;;;;;4242473;27;20866;-57
2021/05/04 02:49:48;;;;;;;4.83;2.10;;;5.20;99.90;;;;;;4242299;27;20327;-65
2021/05/04 02:51:49;;;;;;;4.50;2.50;;;5.20;99.90;;;;;;4243575;27;20320;-63
2021/05/04 02:53:51;;;;;;;4.67;2.57;;;5.10;99.90;;;;;;4241961;27;20978;-57
2021/05/04 02:55:52;;;;;;;9.97;3.00;;;5.10;99.90;;;;;;4242024;27;21116;-59
2021/05/04 02:57:53;;;;;;;6.40;3.07;;;5.10;99.90;;;;;;4242454;27;20259;-57
2021/05/04 02:59:54;;;;;;;5.10;2.83;;;5.10;99.90;;;;;;4243035;27;20312;-58
2021/05/04 03:01:55;;;;;;;3.87;2.80;;;5.00;99.90;;;;;;4242815;27;20287;-56
2021/05/04 03:03:56;;;;;;;9.27;4.00;;;4.90;99.90;;;;;;4240852;27;20332;-54
2021/05/04 03:05:57;;;;;;;5.87;2.80;;;4.90;99.90;;;;;;4231506;27;20351;-60
2021/05/04 03:07:58;;;;;;;7.43;3.50;;;4.80;99.90;;;;;;4241749;27;20267;-59
2021/05/04 03:09:59;;;;;;;2.80;2.03;;;4.80;99.90;;;;;;4242877;27;20279;-58
2021/05/04 03:12:01;;;;;;;10.07;2.87;;;4.80;99.90;;;;;;4241793;27;20758;-62
2021/05/04 03:14:02;;;;;;;3.93;2.47;;;4.90;99.90;;;;;;4243029;27;20275;-54
2021/05/04 03:16:03;;;;;;;4.70;2.33;;;5.00;99.90;;;;;;4241278;27;20291;-65
2021/05/04 03:18:04;;;;;;;6.87;2.50;;;5.20;99.90;;;;;;4242881;27;20267;-60
2021/05/04 03:20:06;;;;;;;6.77;2.47;;;5.30;99.90;;;;;;4240742;27;20673;-58
2021/05/04 03:22:08;;;;;;;5.53;2.33;;;5.60;99.90;;;;;;4242599;27;20283;-58
2021/05/04 03:24:09;;;;;;;7.70;2.90;;;5.80;99.90;;;;;;4239252;27;20354;-59
2021/05/04 03:26:10;;;;;;;6.90;2.87;;;6.10;99.90;;;;;;4240039;27;20283;-57
2021/05/04 03:28:12;;;;;;;6.27;2.30;;;6.50;99.90;;;;;;4242132;27;20288;-58
2021/05/04 03:30:13;;;;;;;17.13;2.83;;;6.80;99.70;;;;;;4241368;27;20308;-58
2021/05/04 03:32:15;;;;;;;5.10;2.23;;;7.10;98.90;;;;;;4241940;27;20739;-57
2021/05/04 03:34:16;;;;;;;8.77;2.47;;;7.30;98.00;;;;;;4240551;27;20271;-58
2021/05/04 03:36:17;;;;;;;4.90;2.77;;;7.50;97.40;;;;;;4242112;27;20295;-60
2021/05/04 03:38:18;;;;;;;6.50;2.50;;;7.80;97.00;;;;;;4241466;27;20264;-58
2021/05/04 03:40:19;;;;;;;5.97;2.97;;;8.10;96.20;;;;;;4225733;27;20264;-67
2021/05/04 03:42:20;;;;;;;5.47;2.07;;;8.30;95.30;;;;;;4224169;28;20027;-55
2021/05/04 03:44:21;;;;;;;4.53;2.20;;;8.60;94.60;;;;;;4239713;27;20027;-63
2021/05/04 03:46:23;;;;;;;4.80;2.23;;;8.90;93.70;;;;;;4239518;27;20833;-59
2021/05/04 03:48:24;;;;;;;3.40;1.67;;;9.30;92.50;;;;;;4242022;27;20028;-59
2021/05/04 03:50:27;;;;;;;3.23;1.80;;;9.70;91.50;;;;;;4231598;27;20035;-59
2021/05/04 03:52:29;;;;;;;4.73;1.90;;;10.10;90.40;;;;;;4242110;27;20035;-61
2021/05/04 03:54:30;;;;;;;2.07;1.83;;;10.50;88.50;;;;;;4240529;27;20039;-60
2021/05/04 03:56:32;;;;;;;5.33;1.93;;;10.80;86.00;;;;;;4241509;27;20055;-63
2021/05/04 03:58:33;;;;;;;2.70;1.80;;;11.10;83.90;;;;;;4241032;27;20307;-57
2021/05/04 04:00:35;;;;;;;4.47;2.30;;;11.40;81.70;;;;;;4236756;27;20437;-59
2021/05/04 04:02:36;;;;;;;3.23;1.77;;;11.70;79.80;;;;;;4239890;27;20096;-67
2021/05/04 04:04:37;;;;;;;5.10;2.20;;;11.90;78.40;;;;;;4239818;27;20040;-63
2021/05/04 04:06:38;;;;;;;5.63;1.93;;;12.20;76.90;;;;;;4234705;27;20031;-59
2021/05/04 04:08:39;;;;;;;6.17;1.90;;;12.40;75.20;;;;;;4224751;27;20119;-64
2021/05/04 04:10:41;;;;;;;6.47;1.73;;;12.50;73.40;;;;;;4224542;28;20028;-58
2021/05/04 04:12:42;;;;;;;2.40;1.50;;;12.80;73.00;;;;;;4223199;27;20528;-64
2021/05/04 04:14:44;;;;;;;4.63;1.80;;;13.10;71.40;;;;;;4235341;27;20019;-64
2021/05/04 04:16:45;;;;;;;2.53;2.00;;;12.90;69.80;;;;;;4240216;27;20088;-62
2021/05/04 04:18:46;;;;;;;1.77;1.57;;;13.20;69.40;;;;;;4240685;27;20116;-60
2021/05/04 04:20:48;;;;;;;3.37;2.03;;;13.30;68.70;;;;;;4240716;27;20027;-68
2021/05/04 04:22:49;;;;;;;6.03;1.93;;;13.50;68.00;;;;;;4241770;27;20091;-61
2021/05/04 04:24:54;;;;;;;6.53;2.03;;;13.80;66.70;;;;;;4231948;27;20031;-61
2021/05/04 04:26:55;;;;;;;2.00;1.70;;;13.90;65.50;;;;;;4233161;27;21347;-60
2021/05/04 04:28:56;;;;;;;2.77;1.47;;;13.80;65.00;;;;;;4234215;27;20108;-62
2021/05/04 04:30:57;;;;;;;6.93;2.20;;;14.10;64.40;;;;;;4220500;27;20520;-62
2021/05/04 04:32:58;;;;;;;3.77;1.67;;;14.40;64.00;;;;;;4219680;27;20035;-59
2021/05/04 04:34:59;;;;;;;3.10;1.97;;;14.40;63.20;;;;;;4221939;27;20036;-69
2021/05/04 04:37:00;;;;;;;3.80;1.70;;;14.70;62.70;;;;;;4224311;27;20092;-54
2021/05/04 04:39:04;;;;;;;3.50;1.40;;;14.90;62.00;;;;;;4221948;27;20039;-59
2021/05/04 04:41:05;;;;;;;6.13;1.90;;;15.00;61.20;;;;;;4227456;27;20034;-58
2021/05/04 04:43:06;;;;;;;2.90;1.40;;;15.20;60.40;;;;;;4223739;27;20023;-64
2021/05/04 04:45:07;;;;;;;7.77;1.50;;;15.60;59.90;;;;;;4223941;27;20068;-64
2021/05/04 04:47:11;;;;;;;3.50;1.57;;;15.80;58.90;;;;;;4227466;27;20584;-63
2021/05/04 04:49:17;;;;;;;3.23;1.37;;;16.00;58.40;;;;;;4236232;27;20468;-65
2021/05/04 04:51:18;;;;;;;3.67;1.73;;;16.10;57.40;;;;;;4239775;27;20043;-62
2021/05/04 04:53:19;;;;;;;2.40;1.67;;;16.30;56.90;;;;;;4233934;27;20141;-58
2021/05/04 04:55:20;;;;;;;4.03;1.70;;;16.40;56.40;;;;;;4229864;27;20051;-60
2021/05/04 04:57:22;;;;;;;5.93;1.85;;;16.80;56.00;;;;;;4236305;27;20108;-61
2021/05/04 04:59:23;;;;;;;3.78;1.48;;;17.40;54.80;;;;;;4222723;28;20483;-59
2021/05/04 05:01:24;;;;;;;2.50;1.75;;;17.70;53.60;;;;;;4223731;28;20052;-63
2021/05/04 05:03:26;;;;;;;4.10;1.90;;;18.10;52.90;;;;;;4220859;27;20097;-67
2021/05/04 05:05:27;;;;;;;3.67;1.73;;;18.20;51.80;;;;;;4224091;27;20035;-66
2021/05/04 05:07:28;;;;;;;5.70;1.77;;;18.30;51.50;;;;;;4232663;27;20043;-59
2021/05/04 05:09:29;;;;;;;2.38;1.20;;;18.60;50.80;;;;;;4222170;28;20092;-60
2021/05/04 05:11:30;;;;;;;2.30;1.38;;;18.80;50.20;;;;;;4227858;27;20031;-58
2021/05/04 05:13:31;;;;;;;5.13;1.88;;;18.60;50.00;;;;;;4221648;27;20100;-67
2021/05/04 05:15:37;;;;;;;3.78;1.58;;;19.10;49.50;;;;;;4235048;27;20476;-63
2021/05/04 05:17:39;;;;;;;4.22;1.80;;;19.50;48.90;;;;;;4238827;27;20079;-61
2021/05/04 05:19:40;;;;;;;5.40;1.60;;;19.80;48.00;;;;;;4239780;27;20096;-59
2021/05/04 05:21:41;;;;;;;2.30;1.80;;;20.00;47.60;;;;;;4238909;27;20023;-59
2021/05/04 05:23:43;;;;;;;5.07;1.80;;;20.30;47.00;;;;;;4240380;27;20120;-61
2021/05/04 05:25:45;;;;;;;4.43;1.38;;;20.70;46.30;;;;;;4233382;27;20035;-65
2021/05/04 05:27:46;;;;;;;3.80;1.90;;;20.80;45.80;;;;;;4236295;27;20019;-61
2021/05/04 05:29:47;;;;;;;4.70;1.80;;;20.90;45.30;;;;;;4234167;27;20027;-60
2021/05/04 05:31:48;;;;;;;1.92;1.30;;;20.70;45.00;;;;;;4223878;28;20035;-59
2021/05/04 05:33:49;;;;;;;4.00;1.73;;;20.90;45.10;;;;;;4239389;27;20559;-67
2021/05/04 05:35:51;;;;;;;2.53;1.10;;;20.50;44.30;;;;;;4239766;27;20024;-58
2021/05/04 05:37:52;;;;;;;4.50;1.33;;;20.40;44.40;;;;;;4239966;27;20039;-59
2021/05/04 05:39:53;;;;;;;4.90;1.50;;;20.20;44.50;;;;;;4239326;27;20108;-62
2021/05/04 05:41:54;;;;;;;2.05;1.40;;;20.20;44.50;;;;;;4240353;27;20035;-62
2021/05/04 05:43:55;;;;;;;1.95;1.63;;;20.50;44.40;;;;;;4239563;27;20031;-68
2021/05/04 05:45:57;;;;;;;6.07;1.85;;;20.80;44.00;;;;;;4240995;27;20031;-61
2021/05/04 05:47:59;;;;;;;5.03;1.92;;;21.20;43.50;;;;;;4239022;27;20080;-57
2021/05/04 05:50:00;;;;;;;2.53;1.63;;;21.00;43.50;;;;;;4240824;27;20031;-66
2021/05/04 05:52:01;;;;;;;4.45;1.73;;;21.20;43.50;;;;;;4239662;27;20060;-59
2021/05/04 05:54:03;;;;;;;5.72;1.70;;;21.20;43.50;;;;;;4240271;27;20059;-62
2021/05/04 05:56:05;;;;;;;2.80;1.67;;;21.00;43.30;;;;;;4238143;27;20076;-63
2021/05/04 05:58:06;;;;;;;5.78;1.70;;;21.40;43.20;;;;;;4239495;27;20039;-63
2021/05/04 06:00:09;;;;;;;2.10;1.60;;;21.80;42.80;;;;;;4237582;27;20437;-62
2021/05/04 06:02:10;;;;;;;7.40;2.00;;;21.70;42.50;;;;;;4239106;27;20035;-65
2021/05/04 06:04:12;;;;;;;5.65;1.95;;;22.10;42.30;;;;;;4239490;27;20404;-59
2021/05/04 06:06:13;;;;;;;2.38;1.98;;;22.00;42.30;;;;;;4238808;27;20143;-63
2021/05/04 06:08:15;;;;;;;1.88;1.73;;;21.80;42.20;;;;;;4239843;27;20023;-62
2021/05/04 06:10:16;;;;;;;2.42;1.90;;;21.60;42.20;;;;;;4237736;27;20023;-62
2021/05/04 06:12:17;;;;;;;3.38;2.40;;;21.10;42.50;;;;;;4226543;28;20076;-59
2021/05/04 06:14:18;;;;;;;3.10;1.80;;;21.00;43.00;;;;;;4238904;27;20535;-61
2021/05/04 06:16:19;;;;;;;3.50;1.83;;;21.10;42.80;;;;;;4239781;28;20027;-65
2021/05/04 06:18:20;;;;;;;2.63;2.08;;;20.50;42.90;;;;;;4238386;27;20039;-59
2021/05/04 06:20:22;;;;;;;6.20;2.10;;;20.30;43.30;;;;;;4240162;28;20027;-65
2021/05/04 06:22:23;;;;;;;5.63;2.05;;;20.10;42.90;;;;;;4239105;27;20506;-60
2021/05/04 06:24:25;;;;;;;4.13;2.13;;;20.00;43.20;;;;;;4240346;27;20035;-60
2021/05/04 06:26:26;;;;;;;3.00;2.33;;;19.70;43.30;;;;;;4238618;27;20043;-62
2021/05/04 06:28:27;;;;;;;5.47;2.78;;;19.40;43.40;;;;;;4239750;28;20083;-59
2021/05/04 06:30:34;;;;;;;4.43;2.58;;;19.80;43.50;;;;;;4238473;28;20547;-62
2021/05/04 06:32:36;;;;;;;8.07;4.97;;;20.20;42.90;;;;;;4239472;28;20015;-61
2021/05/04 06:34:38;;;;;;;6.45;2.90;;;20.40;42.40;;;;;;4235731;28;20039;-62
2021/05/04 06:36:39;;;;;;;6.78;2.45;;;20.90;42.30;;;;;;4240169;28;20035;-61
2021/05/04 06:38:41;;;;;;;5.93;2.75;;;20.70;42.00;;;;;;4231046;28;20027;-61
2021/05/04 06:40:43;;;;;;;5.22;2.20;;;20.50;41.60;;;;;;4222001;28;20100;-64
2021/05/04 06:42:44;;;;;;;3.67;2.20;;;20.30;41.70;;;;;;4222770;28;20031;-65
2021/05/04 06:44:45;;;;;;;4.28;2.33;;;20.50;41.70;;;;;;4228996;28;20111;-59
2021/05/04 06:46:47;;;;;;;3.92;2.22;;;20.80;42.00;;;;;;4239193;28;20429;-64
2021/05/04 06:48:48;;;;;;;2.63;2.15;;;20.00;41.50;;;;;;4238247;27;20031;-61
2021/05/04 06:50:49;;;;;;;5.85;2.38;;;19.70;42.20;;;;;;4239479;28;20019;-58
2021/05/04 06:52:50;;;;;;;7.20;2.85;;;18.50;42.00;;;;;;4237963;28;20609;-59
2021/05/04 06:54:51;;;;;;;3.28;2.22;;;17.60;42.90;;;;;;4238452;27;20043;-61
2021/05/04 06:56:52;;;;;;;5.03;2.38;;;17.40;43.50;;;;;;4238203;28;20027;-61
2021/05/04 06:58:54;;;;;;;3.92;2.55;;;17.10;43.80;;;;;;4238233;27;20039;-59
2021/05/04 07:00:55;;;;;;;4.63;2.78;;;17.40;44.30;;;;;;4237524;28;20064;-60
2021/05/04 07:02:56;;;;;;;3.17;2.45;;;18.30;43.60;;;;;;4236854;28;20809;-59
2021/05/04 07:04:57;;;;;;;5.28;2.45;;;19.20;42.30;;;;;;4221028;28;20027;-63
2021/05/04 07:06:58;;;;;;;5.60;2.42;;;18.80;42.10;;;;;;4221780;28;20039;-63
2021/05/04 07:09:00;;;;;;;3.33;2.25;;;18.60;42.60;;;;;;4228836;28;20084;-62
2021/05/04 07:11:01;;;;;;;5.35;2.72;;;18.80;42.40;;;;;;4239268;27;20035;-61
2021/05/04 07:13:02;;;;;;;3.67;2.42;;;18.60;42.40;;;;;;4224367;27;20024;-57
2021/05/04 07:15:04;;;;;;;4.60;2.35;;;17.90;42.40;;;;;;4240465;27;20019;-62
2021/05/04 07:17:06;;;;;;;8.75;2.10;;;17.20;42.70;;;;;;4242006;27;20547;-59
2021/05/04 07:19:07;;;;;;;3.42;2.33;;;16.90;43.00;;;;;;4241107;27;20159;-55
2021/05/04 07:21:09;;;;;;;4.32;2.17;;;16.60;43.50;;;;;;4241725;27;20444;-60
2021/05/04 07:23:12;;;;;;;4.53;1.80;;;16.40;43.40;;;;;;4240063;27;20091;-64
2021/05/04 07:25:13;;;;;;;4.80;2.30;;;16.30;43.60;;;;;;4242183;27;20068;-63
2021/05/04 07:27:14;;;;;;;6.70;2.55;;;16.20;43.70;;;;;;4235338;27;20445;-63
2021/05/04 07:29:15;;;;;;;5.13;2.17;;;16.40;44.00;;;;;;4224986;28;20069;-63
2021/05/04 07:31:16;;;;;;;4.53;2.35;;;16.70;43.90;;;;;;4224172;28;20433;-61
2021/05/04 07:33:18;;;;;;;2.50;1.80;;;17.20;43.90;;;;;;4224418;28;21030;-62
2021/05/04 07:35:19;;;;;;;3.22;1.95;;;17.30;43.60;;;;;;4223434;27;20088;-60
2021/05/04 07:37:21;;;;;;;1.65;1.52;;;17.40;43.50;;;;;;4224892;27;20109;-64
2021/05/04 07:39:22;;;;;;;2.38;1.85;;;17.50;43.20;;;;;;4223939;28;20065;-61
2021/05/04 07:41:23;;;;;;;2.92;2.28;;;17.90;43.20;;;;;;4223770;28;20372;-63
2021/05/04 07:43:25;;;;;;;5.03;1.95;;;18.10;43.00;;;;;;4233863;27;20764;-69
2021/05/04 07:45:26;;;;;;;3.85;1.92;;;18.20;43.10;;;;;;4241111;27;20023;-63
2021/05/04 07:47:27;;;;;;;4.13;2.00;;;18.50;43.10;;;;;;4234240;27;20525;-60
2021/05/04 07:49:35;;;;;;;3.30;1.88;;;18.50;42.80;;;;;;4235986;27;20031;-67
2021/05/04 07:51:36;;;;;;;5.40;2.00;;;18.40;42.40;;;;;;4240683;27;20550;-67
2021/05/04 07:53:37;;;;;;;2.70;1.92;;;18.10;42.80;;;;;;4240391;27;20080;-62
2021/05/04 07:55:38;;;;;;;3.90;2.22;;;18.00;42.90;;;;;;4241355;27;20498;-67
2021/05/04 07:57:39;;;;;;;3.42;2.15;;;18.10;42.60;;;;;;4239340;27;20084;-61
2021/05/04 07:59:40;;;;;;;1.63;1.52;;;18.00;42.50;;;;;;4240897;27;20034;-60
2021/05/04 08:01:41;;;;;;;2.08;1.60;;;18.00;42.50;;;;;;4239906;27;20068;-64
2021/05/04 08:03:42;;;;;;;2.53;1.85;;;17.90;42.80;;;;;;4241126;27;20043;-59
2021/05/04 08:05:44;;;;;;;2.67;2.10;;;17.80;42.80;;;;;;4239684;27;20579;-65
2021/05/04 08:07:45;;;;;;;5.10;2.33;;;17.50;43.30;;;;;;4234824;27;20028;-60
2021/05/04 08:09:46;;;;;;;4.55;2.67;;;17.60;43.30;;;;;;4223566;28;20033;-64
2021/05/04 08:11:47;;;;;;;3.55;2.20;;;17.90;43.40;;;;;;4223480;28;20056;-65
2021/05/04 08:13:48;;;;;;;3.03;1.80;;;18.30;43.20;;;;;;4223207;27;20373;-63
2021/05/04 08:15:51;;;;;;;1.83;1.65;;;18.00;43.10;;;;;;4224298;27;20730;-65
2021/05/04 08:17:58;;;;;;;4.85;1.90;;;17.40;43.40;;;;;;4223855;28;20112;-63
2021/05/04 08:20:02;;;;;;;3.08;2.17;;;17.30;43.90;;;;;;4222920;28;20035;-65
2021/05/04 08:22:04;;;;;;;3.65;1.88;;;17.10;44.00;;;;;;4223076;28;20035;-64
2021/05/04 08:24:06;;;;;;;1.95;1.45;;;17.20;44.00;;;;;;4222669;28;20032;-67
2021/05/04 08:26:07;;;;;;;2.03;1.67;;;17.00;43.60;;;;;;4235047;27;20127;-65
2021/05/04 08:28:08;;;;;;;9.52;3.65;;;17.10;43.80;;;;;;4239521;27;20027;-66
2021/05/04 08:30:10;;;;;;;4.45;1.60;;;16.80;43.00;;;;;;4240965;27;20099;-67
2021/05/04 08:32:11;;;;;;;4.53;1.80;;;17.00;43.60;;;;;;4240469;27;20030;-65
2021/05/04 08:34:12;;;;;;;3.33;1.70;;;17.30;43.70;;;;;;4241425;27;20441;-56
2021/05/04 08:36:13;;;;;;;5.20;1.60;;;17.60;43.40;;;;;;4240100;27;20023;-64
2021/05/04 08:38:14;;;;;;;4.43;1.40;;;17.80;43.40;;;;;;4241385;27;20066;-66
2021/05/04 08:40:16;;;;;;;2.65;1.75;;;18.20;42.70;;;;;;4240084;27;20031;-63
2021/05/04 08:42:17;;;;;;;4.40;2.17;;;18.30;41.90;;;;;;4240829;27;20146;-60
2021/05/04 08:44:20;;;;;;;1.77;1.65;;;18.00;41.30;;;;;;4240366;27;20039;-64
2021/05/04 08:46:23;;;;;;;2.33;1.65;;;17.90;41.90;;;;;;4240262;27;20738;-70
2021/05/04 08:48:28;;;;;;;2.40;1.52;;;17.80;42.20;;;;;;4239822;27;20171;-64
2021/05/04 08:50:34;;;;;;;1.63;1.50;;;17.90;42.70;;;;;;4240401;27;20080;-65
2021/05/04 08:52:35;;;;;;;1.10;1.00;;;17.90;41.90;;;;;;4239949;27;20477;-64
2021/05/04 08:54:36;;;;;;;1.20;1.10;;;17.90;42.30;;;;;;4239759;27;20711;-66
2021/05/04 08:56:40;;;;;;;1.30;1.20;;;18.00;42.50;;;;;;4240351;27;20079;-63
2021/05/04 08:58:42;;;;;;;1.45;1.35;;;18.20;42.60;;;;;;4239929;27;20035;-63
2021/05/04 09:00:43;;;;;;;3.33;1.60;;;18.30;41.40;;;;;;4241068;27;20039;-65
2021/05/04 09:03:03;;;;;;;3.25;1.58;;;18.00;41.30;;;;;;4240146;27;20296;-66
2021/05/04 09:05:15;;;;;;;1.83;1.27;;;18.00;41.80;;;;;;4241063;27;20035;-60
2021/05/04 09:07:28;;;;;;;2.25;1.67;;;18.00;40.60;;;;;;4226301;27;20065;-57
2021/05/04 09:09:37;;;;;;;2.85;1.17;;;17.80;41.70;;;;;;4221565;28;20468;-60
2021/05/04 09:14:06;;;;;;;2.08;1.23;;;17.80;41.80;;;;;;4230387;27;20523;-60
2021/05/04 09:16:26;;;;;;;3.33;2.10;;;17.60;41.40;;;;;;4240237;27;20031;-61
2021/05/04 09:21:06;;;;;;;3.88;2.00;;;17.70;41.60;;;;;;4239686;27;20432;-59
2021/05/04 09:23:08;;;;;;;10.02;1.92;;;17.60;42.00;;;;;;4239922;27;20478;-61
2021/05/04 09:25:28;;;;;;;2.53;1.35;;;17.50;42.40;;;;;;4240603;27;20769;-62
2021/05/04 09:27:29;;;;;;;1.60;1.40;;;17.50;41.60;;;;;;4239464;27;20444;-59
2021/05/04 09:29:40;;;;;;;2.10;1.75;;;17.40;42.80;;;;;;4239840;27;20047;-61
2021/05/04 09:31:42;;;;;;;2.53;1.33;;;17.50;42.70;;;;;;4239244;27;20095;-61
2021/05/04 09:33:43;;;;;;;2.42;1.48;;;17.50;42.40;;;;;;4239079;27;20429;-62
2021/05/04 09:35:44;;;;;;;1.95;1.75;;;17.60;42.40;;;;;;4239861;27;20027;-60
2021/05/04 09:37:45;;;;;;;4.00;1.23;;;17.80;42.10;;;;;;4238634;27;20043;-61
2021/05/04 09:39:47;;;;;;;1.40;1.30;;;17.80;43.10;;;;;;4240454;27;20467;-60
2021/05/04 09:41:48;;;;;;;1.65;1.38;;;18.10;42.40;;;;;;4239064;27;20440;-60
2021/05/04 09:43:49;;;;;;;5.97;1.65;;;17.90;41.50;;;;;;4240236;27;20031;-63
2021/05/04 09:45:58;;;;;;;3.00;1.40;;;17.70;42.10;;;;;;4239721;27;20368;-61
2021/05/04 09:48:14;;;;;;;2.72;1.27;;;17.70;42.50;;;;;;4236650;27;20076;-62
2021/05/04 09:50:15;;;;;;;1.58;1.17;;;17.60;42.50;;;;;;4221286;28;20040;-61
2021/05/04 09:54:33;;;;;;;1.88;1.45;;;17.70;42.60;;;;;;4221563;28;20070;-59
2021/05/04 09:56:36;;;;;;;1.30;1.20;;;17.60;42.40;;;;;;4223300;28;20039;-60
2021/05/04 09:58:37;;;;;;;5.00;1.27;;;17.60;42.60;;;;;;4221970;28;20047;-61
2021/05/04 10:00:39;;;;;;;1.83;1.00;;;17.70;42.50;;;;;;4223133;28;20027;-62
2021/05/04 10:02:41;;;;;;;2.45;1.17;;;17.70;42.60;;;;;;4222406;28;20179;-64
2021/05/04 10:04:42;;;;;;;1.95;1.58;;;17.60;42.30;;;;;;4223091;28;20409;-59
2021/05/04 10:06:44;;;;;;;2.70;1.60;;;17.40;42.50;;;;;;4222010;28;20032;-59
2021/05/04 10:08:46;;;;;;;2.05;1.30;;;17.20;42.50;;;;;;4222925;28;20069;-61
2021/05/04 10:10:48;;;;;;;3.63;1.52;;;17.20;43.30;;;;;;4220642;27;20080;-61
2021/05/04 10:12:51;;;;;;;1.40;1.30;;;17.30;42.90;;;;;;4226838;27;20476;-62
2021/05/04 10:14:53;;;;;;;2.05;1.27;;;17.10;42.10;;;;;;4234710;27;20092;-60
2021/05/04 10:16:57;;;;;;;2.58;1.40;;;16.90;42.60;;;;;;4238433;28;20031;-60
2021/05/04 10:19:05;;;;;;;1.02;0.82;;;17.00;42.70;;;;;;4238707;27;20104;-63
2021/05/04 10:21:07;;;;;;;13.18;2.30;;;17.10;43.30;;;;;;4236648;27;20046;-61
2021/05/04 10:23:14;;;;;;;3.25;1.50;;;17.20;43.40;;;;;;4226176;28;20081;-60
2021/05/04 10:25:19;;;;;;;6.60;1.63;;;17.30;43.00;;;;;;4221321;28;20507;-59
2021/05/04 10:27:22;;;;;;;4.40;2.15;;;17.00;42.90;;;;;;4236822;28;20039;-62
2021/05/04 10:29:24;;;;;;;2.22;0.95;;;17.00;43.30;;;;;;4235711;28;20036;-59
2021/05/04 10:31:43;;;;;;;1.70;1.23;;;17.00;43.20;;;;;;4240095;27;20035;-63
2021/05/04 10:33:45;;;;;;;6.25;2.40;;;17.20;43.30;;;;;;4237449;28;20027;-59
2021/05/04 10:35:48;;;;;;;3.08;1.02;;;17.30;43.30;;;;;;4239890;27;20039;-59
2021/05/04 10:38:02;;;;;;;2.65;1.10;;;17.30;43.10;;;;;;4238954;27;20111;-57
2021/05/04 10:40:21;;;;;;;3.47;1.55;;;17.40;42.50;;;;;;4239709;28;20107;-59
2021/05/04 10:42:35;;;;;;;1.15;1.05;;;17.30;42.00;;;;;;4238630;27;20061;-60
2021/05/04 10:44:58;;;;;;;9.05;3.55;;;17.20;43.10;;;;;;4239620;27;20108;-59
2021/05/04 10:46:59;;;;;;;3.47;1.38;;;17.30;42.20;;;;;;4241575;27;20023;-60